• Join FlightAware (Why Join?)
  • Login
  • US Flag 
01:21AM EDT


 

Airport Tracker/Info


-or-


 

Live Flight TrackerFlight Track Log ✈ ELY4 ✈ 01-May-2013 ✈ KJFK - LLBG / TLV

Flight Track Log - Related Links

Times and Time Zones

All times are in EDT time to prevent confusion due to time zone crossing. See the ELY4 flight status page for this flight to view local times or setup timezone preferences in your user account.

Time Position Orientation Groundspeed Altitude Reporting Facility
EDT Latitude Longitude Course Direction KTS MPH feet Rate Location/Type
12:34PM 40.6000 -73.7500 37° Northeast 169 194 2,000  Level New York TRACON
12:35PM 40.6000 -73.6667 90° East 221 254 2,800 1,860 Climbing New York TRACON
12:38PM 40.6950 -73.4994 53° Northeast 252 290 8,400 2,280 Climbing Boston Center
12:39PM 40.7703 -73.4594 22° Northeast 265 305 10,700 1,800 Climbing Boston Center
12:40PM 41.1779 -73.3054 37° Northeast  Level FlightAware Approximate
12:40PM 40.8622 -73.4144 20° North 294 338 12,100  Level Boston Center
12:41PM 40.9650 -73.3581 23° Northeast 350 403 14,600 2,460 Climbing Boston Center
12:42PM 41.0800 -73.2992 21° North 388 447 17,100 2,160 Climbing Boston Center
12:43PM 41.1867 -73.2428 22° Northeast 406 467 19,000 2,040 Climbing Boston Center
12:44PM 41.2956 -73.1833 22° Northeast 413 475 21,200 2,040 Climbing Boston Center
12:45PM 41.4022 -73.1042 29° Northeast 418 481 23,100 1,800 Climbing Boston Center
12:46PM 41.4633 -72.9608 60° Northeast 413 475 24,900 1,620 Climbing Boston Center
12:47PM 41.5267 -72.8144 60° Northeast 430 495 26,400 1,440 Climbing Boston Center
12:48PM 41.5811 -72.6814 61° Northeast 443 510 27,800 1,440 Climbing Boston Center
12:49PM 41.6189 -72.5122 73° East 460 529 29,300 1,560 Climbing Boston Center
12:50PM 41.6481 -72.3372 77° East 465 535 31,000 840 Climbing Boston Center
12:51PM 41.6894 -72.1789 71° East 465 535 31,000 660 Level Boston Center
12:52PM 41.7389 -72.0228 67° East 458 527 32,400 960 Climbing Boston Center
12:53PM 41.7861 -71.8694 68° East 448 516 33,000 300 Climbing Boston Center
12:54PM 41.8333 -71.7156 68° East 448 516 33,000  Level Boston Center
12:55PM 41.8800 -71.5589 68° East 448 516 33,000  Level Boston Center
12:56PM 41.9289 -71.4131 66° East 437 503 33,000  Level Boston Center
12:57PM 41.9753 -71.2589 68° East 437 503 33,000  Level Boston Center
12:58PM 42.0217 -71.1069 68° East 437 503 33,000  Level Boston Center
12:59PM 42.0675 -70.9522 68° East 437 503 33,000  Level Boston Center
01:00PM 42.1114 -70.7944 69° East 437 503 33,000  Level Boston Center
01:01PM 42.1547 -70.6394 69° East 437 503 33,000  Level Boston Center
01:02PM 42.2000 -70.4839 69° East 437 503 33,000  Level Boston Center
01:03PM 42.2494 -70.3253 67° East 437 503 33,000  Level Boston Center
01:04PM 42.2944 -70.1722 68° East 437 503 33,000  Level Boston Center
01:05PM 42.3369 -70.0161 70° East 437 503 33,000  Level Boston Center
01:06PM 42.3892 -69.8369 68° East 448 516 33,000  Level Boston Center
01:07PM 42.4356 -69.6803 68° East 448 516 33,000  Level Boston Center
01:08PM 42.4775 -69.5208 70° East 448 516 33,000  Level Boston Center
01:09PM 42.5175 -69.3722 70° East 453 521 33,000  Level Boston Center
01:10PM 42.5783 -69.1633 68° East 458 527 33,000  Level Boston Center
01:11PM 42.6233 -69.0003 69° East 452 520 33,000  Level Boston Center
01:12PM 42.6664 -68.8367 70° East 457 526 33,000  Level Boston Center
01:13PM 42.7108 -68.6703 70° East 457 526 33,000  Level Boston Center
01:13PM 42.7000 -68.6167 105° East 460 529 33,000  Level Moncton Center
01:14PM 42.7500 -68.4667 66° East 460 529 33,000  Level Moncton Center
01:15PM 42.8000 -68.2833 70° East 460 529 33,000  Level Moncton Center
01:16PM 42.8333 -68.1333 73° East 460 529 33,000  Level Moncton Center
01:17PM 42.8861 -68.0331 54° Northeast 454 522 33,000  Level Boston Center
01:18PM 42.9275 -67.8683 71° East 454 522 33,000  Level Boston Center
01:18PM 42.9333 -67.8000 83° East 460 529 33,000  Level Moncton Center
01:19PM 42.9667 -67.6333 75° East 470 541 33,000  Level Moncton Center
01:20PM 43.0136 -67.5322 58° Northeast 459 528 33,000  Level Boston Center
01:21PM 43.0564 -67.3639 71° East 459 528 33,000  Level Boston Center
01:21PM 43.0667 -67.2500 83° East 480 552 33,000  Level Moncton Center
01:22PM 43.1000 -67.1000 73° East 470 541 33,000  Level Moncton Center
01:23PM 43.1453 -67.0289 49° Northeast 459 528 33,000  Level Boston Center
01:24PM 43.2333 -66.7833 64° Northeast 470 541 33,000  Level Moncton Center
01:25PM 43.2833 -66.6167 68° East 460 529 33,000  Level Moncton Center
01:26PM 43.3333 -66.4667 65° Northeast 470 541 33,000  Level Moncton Center
01:27PM 43.4000 -66.3000 61° Northeast 470 541 33,000  Level Moncton Center
01:28PM 43.4500 -66.1500 65° Northeast 470 541 33,000  Level Moncton Center
01:29PM 43.5000 -65.9833 67° East 460 529 33,000  Level Moncton Center
01:30PM 43.5833 -65.8333 52° Northeast 460 529 33,000  Level Moncton Center
01:31PM 43.6333 -65.6667 67° East 460 529 33,000  Level Moncton Center
01:32PM 43.6833 -65.5000 67° East 460 529 33,000  Level Moncton Center
01:33PM 43.7500 -65.3500 58° Northeast 460 529 33,000  Level Moncton Center
01:34PM 43.8000 -65.2000 65° Northeast 460 529 33,000  Level Moncton Center
01:35PM 43.8500 -65.0500 65° Northeast 460 529 33,000  Level Moncton Center
01:36PM 43.9000 -64.8833 67° East 460 529 33,000  Level Moncton Center
01:37PM 43.9667 -64.7167 61° Northeast 460 529 33,000  Level Moncton Center
01:38PM 44.0167 -64.5667 65° Northeast 460 529 33,000  Level Moncton Center
01:39PM 44.0833 -64.4000 61° Northeast 450 518 33,000  Level Moncton Center
01:40PM 44.1333 -64.2500 65° Northeast 450 518 33,000  Level Moncton Center
01:41PM 44.1833 -64.1000 65° Northeast 450 518 33,000  Level Moncton Center
01:42PM 44.2333 -63.9333 67° East 450 518 33,000  Level Moncton Center
01:43PM 44.3000 -63.7667 61° Northeast 450 518 33,000  Level Moncton Center
01:44PM 44.3500 -63.6333 62° Northeast 450 518 33,000  Level Moncton Center
01:45PM 44.3667 -63.5167 79° East 450 518 33,000  Level Gander Center
01:45PM 44.4000 -63.4667 47° Northeast 450 518 33,000  Level Moncton Center
01:46PM 44.4500 -63.3000 67° East 450 518 33,000  Level Moncton Center
01:47PM 44.5000 -63.1333 67° East 450 518 33,000  Level Moncton Center
01:48PM 44.5667 -62.9667 61° Northeast 450 518 33,000  Level Moncton Center
01:49PM 44.6167 -62.8167 65° Northeast 450 518 33,000  Level Moncton Center
01:50PM 44.6500 -62.6500 74° East 460 529 33,000  Level Moncton Center
01:51PM 44.7167 -62.4833 61° Northeast 460 529 33,000  Level Moncton Center
01:52PM 44.7667 -62.3167 67° East 460 529 33,000  Level Moncton Center
01:53PM 44.8167 -62.1500 67° East 460 529 33,000  Level Moncton Center
01:54PM 44.8833 -61.9833 61° Northeast 460 529 33,000  Level Moncton Center
01:55PM 44.9333 -61.8167 67° East 460 529 33,000  Level Moncton Center
01:56PM 44.9667 -61.6500 74° East 460 529 33,000  Level Moncton Center
01:57PM 45.0333 -61.4833 60° Northeast 460 529 33,000  Level Moncton Center
01:58PM 45.0833 -61.3167 67° East 460 529 33,000  Level Moncton Center
01:59PM 45.1333 -61.1500 67° East 460 529 33,000  Level Moncton Center
02:00PM 45.1833 -60.9833 67° East 460 529 33,000  Level Moncton Center
02:01PM 45.2333 -60.8167 67° East 470 541 33,000  Level Moncton Center
02:02PM 45.2833 -60.6333 69° East 460 529 33,000  Level Moncton Center
02:03PM 45.3000 -60.5500 74° East 470 541 33,000  Level Gander Center
02:04PM 45.3500 -60.4000 65° Northeast 460 529 33,000  Level Gander Center
02:04PM 45.3833 -60.3167 60° Northeast 460 529 33,000  Level Moncton Center
02:05PM 45.4333 -60.1500 67° East 460 529 33,000  Level Moncton Center
02:06PM 45.4833 -59.9833 67° East 460 529 33,000  Level Moncton Center
02:07PM 45.5333 -59.8167 67° East 460 529 33,000  Level Moncton Center
02:08PM 45.5833 -59.6333 69° East 460 529 33,000  Level Moncton Center
02:09PM 45.6167 -59.5667 54° Northeast 460 529 33,000  Level Gander Center
02:09PM 45.6500 -59.4667 64° Northeast 460 529 33,000  Level Moncton Center
02:10PM 45.7000 -59.3000 67° East 460 529 33,000  Level Moncton Center
02:11PM 45.7500 -59.1500 64° Northeast 460 529 33,000  Level Moncton Center
02:12PM 45.8167 -58.9667 62° Northeast 460 529 33,000  Level Moncton Center
02:13PM 45.8500 -58.8000 74° East 460 529 33,000  Level Moncton Center
02:14PM 45.8833 -58.7167 60° Northeast 460 529 33,000  Level Gander Center
02:14PM 45.9167 -58.6167 64° Northeast 460 529 33,000  Level Moncton Center
02:15PM 45.9500 -58.4667 72° East 460 529 33,000  Level Moncton Center
02:16PM 46.0167 -58.2667 64° Northeast 460 529 33,000  Level Moncton Center
02:17PM 46.0500 -58.1167 72° East 460 529 33,000  Level Moncton Center
02:18PM 46.1167 -57.9500 60° Northeast 460 529 33,000  Level Moncton Center
02:19PM 46.1333 -57.8667 74° East 460 529 33,000  Level Gander Center
02:19PM 46.1500 -57.7667 76° East 460 529 33,000  Level Moncton Center
02:20PM 46.2000 -57.6000 67° East 470 541 33,000  Level Moncton Center
02:21PM 46.2667 -57.4167 62° Northeast 470 541 33,000  Level Moncton Center
02:22PM 46.3000 -57.2667 72° East 470 541 33,000  Level Moncton Center
02:23PM 46.3500 -57.0667 70° East 470 541 33,000  Level Moncton Center
02:24PM 46.3833 -57.0000 54° Northeast 470 541 33,000  Level Gander Center
02:24PM 46.4000 -56.9167 74° East 470 541 33,000  Level Moncton Center
02:25PM 46.4500 -56.7167 70° East 470 541 33,000  Level Moncton Center
02:26PM 46.4833 -56.5667 72° East 470 541 33,000  Level Moncton Center
02:27PM 46.5500 -56.3667 64° Northeast 470 541 33,000  Level Moncton Center
02:28PM 46.6000 -56.1833 68° East 480 552 33,000  Level Moncton Center
02:29PM 46.6333 -56.0000 75° East 470 541 33,000  Level Moncton Center
02:30PM 46.6833 -55.8167 68° East 480 552 33,000  Level Moncton Center
02:31PM 46.7167 -55.6500 74° East 470 541 33,000  Level Moncton Center
02:32PM 46.7833 -55.4667 62° Northeast 470 541 33,000  Level Moncton Center
02:33PM 46.8167 -55.3000 74° East 480 552 33,000  Level Gander Center
02:34PM 46.8500 -55.1000 76° East 480 552 33,000  Level Gander Center
02:35PM 46.8833 -55.0000 64° Northeast 480 552 33,000  Level Gander Center
02:36PM 46.9167 -54.8167 75° East 480 552 33,000  Level Gander Center
02:36PM 46.9500 -54.7167 64° Northeast 480 552 33,000  Level Moncton Center
02:37PM 47.0000 -54.5333 68° East 480 552 33,000  Level Moncton Center
02:38PM 47.0333 -54.3667 74° East 480 552 33,000  Level Moncton Center
02:39PM 47.0833 -54.1833 68° East 490 564 33,000  Level Moncton Center
02:40PM 47.1167 -54.0000 75° East 490 564 33,000  Level Moncton Center
02:41PM 47.1500 -53.8833 67° East 490 564 33,000  Level Gander Center
02:42PM 47.1833 -53.7000 75° East 490 564 33,000  Level Gander Center
02:42PM 47.2167 -53.6000 64° Northeast 490 564 33,000  Level Moncton Center
02:43PM 47.2667 -53.4000 70° East 490 564 33,000  Level Moncton Center
02:44PM 47.2833 -53.3167 74° East 490 564 33,000  Level Gander Center
02:45PM 47.3333 -53.1167 70° East 490 564 33,000  Level Gander Center
02:46PM 47.3667 -52.9333 75° East 500 575 33,000  Level Gander Center
02:47PM 47.4000 -52.7333 76° East 500 575 33,000  Level Gander Center
02:48PM 47.4500 -52.5500 68° East 500 575 33,000  Level Gander Center
02:49PM 47.5000 -52.3500 70° East 500 575 33,000  Level Gander Center
02:50PM 47.5333 -52.1667 75° East 500 575 33,000  Level Gander Center
02:51PM 47.5667 -51.9500 77° East 500 575 33,000  Level Gander Center
02:52PM 47.6167 -51.7500 70° East 500 575 33,000  Level Gander Center
02:52PM 47.6333 -51.6667 73° East 500 575 33,000  Level Gander Center
02:53PM 47.6833 -51.4833 68° East 490 564 33,000  Level Gander Center
02:54PM 47.7167 -51.2667 77° East 490 564 33,000  Level Moncton Center
02:55PM 47.7667 -51.0833 68° East 500 575 33,000  Level Moncton Center
02:56PM 47.7667 -50.9667 90° East 500 575 33,000  Level Gander Center
02:57PM 47.8167 -50.7833 68° East 500 575 33,000  Level Gander Center
02:57PM 47.8333 -50.6833 76° East 500 575 33,000  Level Moncton Center
02:58PM 47.8833 -50.5000 68° East 500 575 33,000  Level Moncton Center
02:59PM 47.9000 -50.4000 76° East 500 575 33,000  Level Gander Center
02:59PM 47.9167 -50.2833 78° East 500 575 33,000  Level Gander Center
03:00PM 47.9333 -50.1833 76° East 500 575 33,000  Level Gander Center
03:01PM 47.9833 -50.0000 68° East 500 575 33,000  Level Gander Center
03:02PM 48.0333 -49.8167 68° East 500 575 33,000  Level Gander Center
03:02PM 48.0500 -49.7000 78° East 500 575 33,000  Level Gander Center
03:03PM 48.1000 -49.5500 63° Northeast 500 575 33,000  Level Gander Center
03:05PM 48.1776 -49.3419 61° Northeast  Level FlightAware Approximate
03:12PM 48.6354 -48.0798 61° Northeast  Level FlightAware Approximate
03:13PM 48.6997 -47.8977 62° Northeast  Level FlightAware Approximate
03:14PM 48.7636 -47.7150 62° Northeast  Level FlightAware Approximate
03:15PM 48.8273 -47.5320 62° Northeast  Level FlightAware Approximate
03:16PM 48.8907 -47.3484 62° Northeast  Level FlightAware Approximate
03:17PM 48.9538 -47.1644 62° Northeast  Level FlightAware Approximate
03:18PM 49.0166 -46.9799 63° Northeast  Level FlightAware Approximate
03:19PM 49.0791 -46.7950 63° Northeast  Level FlightAware Approximate
03:20PM 49.1413 -46.6096 63° Northeast  Level FlightAware Approximate
03:21PM 49.2033 -46.4237 63° Northeast  Level FlightAware Approximate
03:22PM 49.2630 -46.2348 64° Northeast  Level FlightAware Approximate
03:23PM 49.3215 -46.0459 65° Northeast  Level FlightAware Approximate
03:24PM 49.3798 -45.8566 65° Northeast  Level FlightAware Approximate
03:25PM 49.4377 -45.6668 65° Northeast  Level FlightAware Approximate
03:26PM 49.4953 -45.4766 65° Northeast  Level FlightAware Approximate
03:27PM 49.5529 -45.2862 65° Northeast  Level FlightAware Approximate
03:27PM 48.0000 -50.0000 61° Northeast 494 568 33,000  Level ETMS Enhanced Traffic Management System
03:28PM 49.6110 -45.0958 65° Northeast  Level FlightAware Approximate
03:29PM 49.6688 -44.9051 65° Northeast  Level FlightAware Approximate
03:30PM 49.7263 -44.7138 65° Northeast  Level FlightAware Approximate
03:31PM 49.7834 -44.5222 65° Northeast  Level FlightAware Approximate
03:32PM 49.8403 -44.3301 65° Northeast  Level FlightAware Approximate
03:33PM 49.9491 -43.9913 66° East 494 568 33,000  Level FlightAware Transoceanic
03:34PM 50.0048 -43.7960 66° East 494 568 33,000  Level FlightAware Transoceanic
03:35PM 50.0602 -43.6002 66° East 494 568 33,000  Level FlightAware Transoceanic
03:36PM 50.1153 -43.4040 66° East 494 568 33,000  Level FlightAware Transoceanic
03:37PM 50.1701 -43.2073 67° East 494 568 33,000  Level FlightAware Transoceanic
03:38PM 50.2245 -43.0102 67° East 494 568 33,000  Level FlightAware Transoceanic
03:39PM 50.2786 -42.8126 67° East 494 568 33,000  Level FlightAware Transoceanic
03:40PM 50.3324 -42.6146 67° East 494 568 33,000  Level FlightAware Transoceanic
03:41PM 50.3858 -42.4161 67° East 494 568 33,000  Level FlightAware Transoceanic
03:42PM 50.4389 -42.2172 67° East 494 568 33,000  Level FlightAware Transoceanic
03:43PM 50.4916 -42.0178 68° East 494 568 33,000  Level FlightAware Transoceanic
03:44PM 50.5440 -41.8180 68° East 494 568 33,000  Level FlightAware Transoceanic
03:45PM 50.5961 -41.6178 68° East 494 568 33,000  Level FlightAware Transoceanic
03:46PM 50.6478 -41.4171 68° East 494 568 33,000  Level FlightAware Transoceanic
03:47PM 50.6991 -41.2160 68° East 494 568 33,000  Level FlightAware Transoceanic
03:48PM 50.7501 -41.0144 68° East 494 568 33,000  Level FlightAware Transoceanic
03:49PM 50.8008 -40.8124 68° East 494 568 33,000  Level FlightAware Transoceanic
03:50PM 50.8511 -40.6100 69° East 494 568 33,000  Level FlightAware Transoceanic
03:51PM 50.9011 -40.4071 69° East 494 568 33,000  Level FlightAware Transoceanic
03:52PM 50.9507 -40.2038 69° East 494 568 33,000  Level FlightAware Transoceanic
03:53PM 50.9996 -40.0015 69° East  Level FlightAware Approximate
03:54PM 51.0478 -39.7987 69° East  Level FlightAware Approximate
03:55PM 51.0499 -39.8018 68° East  Level FlightAware Approximate
03:56PM 51.1003 -39.6000 68° East  Level FlightAware Approximate
03:57PM 51.1503 -39.3979 68° East  Level FlightAware Approximate
03:57PM 51.0000 -40.0000 68° East 506 582 33,000  Level ETMS Enhanced Traffic Management System
03:58PM 51.1999 -39.1953 69° East  Level FlightAware Approximate
03:59PM 51.2492 -38.9922 69° East  Level FlightAware Approximate
04:00PM 51.2982 -38.7887 69° East  Level FlightAware Approximate
04:01PM 51.3468 -38.5848 69° East  Level FlightAware Approximate
04:02PM 51.3950 -38.3805 69° East  Level FlightAware Approximate
04:03PM 51.5057 -37.9041 70° East 506 582 33,000  Level FlightAware Transoceanic
04:04PM 51.5542 -37.6920 70° East 506 582 33,000  Level FlightAware Transoceanic
04:05PM 51.6023 -37.4794 70° East 506 582 33,000  Level FlightAware Transoceanic
04:06PM 51.6501 -37.2664 70° East 506 582 33,000  Level FlightAware Transoceanic
04:07PM 51.6974 -37.0529 70° East 506 582 33,000  Level FlightAware Transoceanic
04:08PM 51.7444 -36.8390 71° East 506 582 33,000  Level FlightAware Transoceanic
04:09PM 51.7909 -36.6247 71° East 506 582 33,000  Level FlightAware Transoceanic
04:10PM 51.8371 -36.4099 71° East 506 582 33,000  Level FlightAware Transoceanic
04:11PM 51.8829 -36.1946 71° East 506 582 33,000  Level FlightAware Transoceanic
04:12PM 51.9283 -35.9790 71° East 506 582 33,000  Level FlightAware Transoceanic
04:13PM 51.9733 -35.7629 71° East 506 582 33,000  Level FlightAware Transoceanic
04:14PM 52.0179 -35.5463 72° East 506 582 33,000  Level FlightAware Transoceanic
04:15PM 52.0621 -35.3294 72° East 506 582 33,000  Level FlightAware Transoceanic
04:16PM 52.1059 -35.1120 72° East 506 582 33,000  Level FlightAware Transoceanic
04:17PM 52.1493 -34.8942 72° East 506 582 33,000  Level FlightAware Transoceanic
04:18PM 52.1923 -34.6759 72° East 506 582 33,000  Level FlightAware Transoceanic
04:19PM 52.2349 -34.4573 72° East 506 582 33,000  Level FlightAware Transoceanic
04:20PM 52.2771 -34.2382 73° East 506 582 33,000  Level FlightAware Transoceanic
04:21PM 52.3189 -34.0187 73° East 506 582 33,000  Level FlightAware Transoceanic
04:22PM 52.3602 -33.7988 73° East 506 582 33,000  Level FlightAware Transoceanic
04:23PM 52.4012 -33.5785 73° East 506 582 33,000  Level FlightAware Transoceanic
04:24PM 52.4418 -33.3578 73° East 506 582 33,000  Level FlightAware Transoceanic
04:25PM 52.4819 -33.1366 73° East 506 582 33,000  Level FlightAware Transoceanic
04:26PM 52.5216 -32.9151 74° East 506 582 33,000  Level FlightAware Transoceanic
04:27PM 52.5610 -32.6932 74° East 506 582 33,000  Level FlightAware Transoceanic
04:28PM 52.5999 -32.4708 74° East 506 582 33,000  Level FlightAware Transoceanic
04:29PM 52.6384 -32.2481 74° East 506 582 33,000  Level FlightAware Transoceanic
04:30PM 52.6764 -32.0250 74° East 506 582 33,000  Level FlightAware Transoceanic
04:31PM 52.7141 -31.8015 75° East 506 582 33,000  Level FlightAware Transoceanic
04:32PM 52.7513 -31.5776 75° East 506 582 33,000  Level FlightAware Transoceanic
04:33PM 52.7881 -31.3534 75° East 506 582 33,000  Level FlightAware Transoceanic
04:34PM 52.8245 -31.1287 75° East 506 582 33,000  Level FlightAware Transoceanic
04:35PM 52.8604 -30.9037 75° East 506 582 33,000  Level FlightAware Transoceanic
04:36PM 52.8960 -30.6783 75° East 506 582 33,000  Level FlightAware Transoceanic
04:37PM 52.9311 -30.4526 76° East 506 582 33,000  Level FlightAware Transoceanic
04:38PM 52.9658 -30.2265 76° East 506 582 33,000  Level FlightAware Transoceanic
04:39PM 52.9990 -30.0068 76° East  Level FlightAware Approximate
04:40PM 53.0319 -29.7868 76° East  Level FlightAware Approximate
04:41PM 53.0290 -29.7928 77° East  Level FlightAware Approximate
04:42PM 53.0595 -29.5717 77° East  Level FlightAware Approximate
04:43PM 53.0896 -29.3503 77° East  Level FlightAware Approximate
04:44PM 53.1192 -29.1285 77° East  Level FlightAware Approximate
04:45PM 53.1485 -28.9065 78° East  Level FlightAware Approximate
04:46PM 53.1776 -28.6842 78° East  Level FlightAware Approximate
04:47PM 53.2067 -28.4618 78° East  Level FlightAware Approximate
04:48PM 53.2355 -28.2392 78° East  Level FlightAware Approximate
04:49PM 53.2638 -28.0162 78° East  Level FlightAware Approximate
04:50PM 53.2917 -27.7929 78° East  Level FlightAware Approximate
04:51PM 53.3192 -27.5694 78° East  Level FlightAware Approximate
04:52PM 53.3462 -27.3455 78° East  Level FlightAware Approximate
04:53PM 53.3729 -27.1214 79° East  Level FlightAware Approximate
04:54PM 53.3991 -26.8970 79° East  Level FlightAware Approximate
04:55PM 53.4249 -26.6723 79° East  Level FlightAware Approximate
04:56PM 53.4503 -26.4473 79° East  Level FlightAware Approximate
04:57PM 53.4754 -26.2222 79° East  Level FlightAware Approximate
04:58PM 53.5003 -25.9968 79° East  Level FlightAware Approximate
04:59PM 53.5248 -25.7712 80° East  Level FlightAware Approximate
05:00PM 53.5488 -25.5453 80° East  Level FlightAware Approximate
05:01PM 53.5725 -25.3192 80° East  Level FlightAware Approximate
05:02PM 53.5957 -25.0928 80° East  Level FlightAware Approximate
05:03PM 53.6185 -24.8661 80° East  Level FlightAware Approximate
05:04PM 53.6408 -24.6392 80° East  Level FlightAware Approximate
05:05PM 53.6627 -24.4121 81° East  Level FlightAware Approximate
05:06PM 53.6842 -24.1848 81° East  Level FlightAware Approximate
05:07PM 53.7053 -23.9572 81° East  Level FlightAware Approximate
05:08PM 53.7259 -23.7294 81° East  Level FlightAware Approximate
05:09PM 53.7461 -23.5014 81° East  Level FlightAware Approximate
05:10PM 53.7659 -23.2731 82° East  Level FlightAware Approximate
05:11PM 53.7852 -23.0446 82° East  Level FlightAware Approximate
05:12PM 53.8041 -22.8160 82° East  Level FlightAware Approximate
05:13PM 53.8225 -22.5871 82° East  Level FlightAware Approximate
05:14PM 53.8406 -22.3580 82° East  Level FlightAware Approximate
05:15PM 53.8582 -22.1288 82° East  Level FlightAware Approximate
05:16PM 53.8753 -21.8993 83° East  Level FlightAware Approximate
05:17PM 53.8920 -21.6697 83° East  Level FlightAware Approximate
05:18PM 53.9083 -21.4398 83° East  Level FlightAware Approximate
05:19PM 53.9241 -21.2098 83° East  Level FlightAware Approximate
05:20PM 53.9395 -20.9797 83° East  Level FlightAware Approximate
05:21PM 53.9545 -20.7493 84° East  Level FlightAware Approximate
05:22PM 53.9690 -20.5188 84° East  Level FlightAware Approximate
05:23PM 53.9831 -20.2882 84° East  Level FlightAware Approximate
05:24PM 53.9967 -20.0574 84° East  Level FlightAware Approximate
05:25PM 54.0036 -19.8257 88° East  Level FlightAware Approximate
05:26PM 54.0079 -19.5937 88° East  Level FlightAware Approximate
05:27PM 54.0119 -19.3617 88° East  Level FlightAware Approximate
05:28PM 54.0153 -19.1297 88° East  Level FlightAware Approximate
05:29PM 54.0184 -18.8976 89° East  Level FlightAware Approximate
05:30PM 54.0210 -18.6655 89° East  Level FlightAware Approximate
05:31PM 54.0231 -18.4334 89° East  Level FlightAware Approximate
05:32PM 54.0248 -18.2013 89° East  Level FlightAware Approximate
05:33PM 54.0260 -17.9691 89° East  Level FlightAware Approximate
05:34PM 54.0268 -17.7369 90° East  Level FlightAware Approximate
05:35PM 54.0271 -17.5047 90° East  Level FlightAware Approximate
05:36PM 54.0271 -17.2725 90° East  Level FlightAware Approximate
05:37PM 54.0265 -17.0404 90° East  Level FlightAware Approximate
05:38PM 54.0255 -16.8082 90° East  Level FlightAware Approximate
05:39PM 54.0241 -16.5760 91° East  Level FlightAware Approximate
05:40PM 54.0222 -16.3439 91° East  Level FlightAware Approximate
05:41PM 54.0198 -16.1118 91° East  Level FlightAware Approximate
05:42PM 54.0170 -15.8797 91° East  Level FlightAware Approximate
05:43PM 54.0138 -15.6476 91° East  Level FlightAware Approximate
05:44PM 54.0101 -15.4156 91° East  Level FlightAware Approximate
05:45PM 54.0060 -15.1836 92° East  Level FlightAware Approximate
05:46PM 54.0014 -14.9517 92° East  Level FlightAware Approximate
05:47PM 53.9982 -14.7198 92° East  Level FlightAware Approximate
05:48PM 53.9937 -14.4879 92° East  Level FlightAware Approximate
05:49PM 53.9887 -14.2561 92° East  Level FlightAware Approximate
05:50PM 53.9832 -14.0243 92° East  Level FlightAware Approximate
05:51PM 53.9774 -13.7926 92° East  Level FlightAware Approximate
05:52PM 53.9710 -13.5610 93° East  Level FlightAware Approximate
05:53PM 53.9642 -13.3294 93° East  Level FlightAware Approximate
05:54PM 53.9570 -13.0979 93° East  Level FlightAware Approximate
05:55PM 53.9494 -12.8665 93° East  Level FlightAware Approximate
05:56PM 53.9412 -12.6352 93° East  Level FlightAware Approximate
05:57PM 53.9327 -12.4039 94° East  Level FlightAware Approximate
05:58PM 53.9237 -12.1728 94° East  Level FlightAware Approximate
05:59PM 53.9142 -11.9418 94° East  Level FlightAware Approximate
06:00PM 53.9042 -11.7109 94° East  Level FlightAware Approximate
06:01PM 53.8938 -11.4801 94° East  Level FlightAware Approximate
06:02PM 53.8829 -11.2494 94° East  Level FlightAware Approximate
06:03PM 53.8716 -11.0189 95° East  Level FlightAware Approximate
06:04PM 53.8599 -10.7884 95° East  Level FlightAware Approximate
06:04PM 53.7536 -8.9736 95° East 470 541 33,500  Level FlightAware UK
06:04PM 53.7490 -8.9023 96° East 470 541 33,500  Level FlightAware UK
06:05PM 53.7445 -8.8313 96° East 468 539 33,500  Level FlightAware UK
06:05PM 53.7398 -8.7601 96° East 470 541 33,500  Level FlightAware UK
06:05PM 53.7353 -8.6888 96° East 468 539 33,500  Level FlightAware UK
06:05PM 53.7306 -8.6178 96° East 468 539 33,500  Level FlightAware UK
06:06PM 53.7259 -8.5469 96° East 470 541 33,500  Level FlightAware UK
06:06PM 53.7209 -8.4759 97° East 470 541 33,500  Level FlightAware UK
06:06PM 53.7159 -8.4041 97° East 468 539 33,500  Level FlightAware UK
06:07PM 53.7110 -8.3331 97° East 470 541 33,500  Level FlightAware UK
06:07PM 53.7059 -8.2626 97° East 470 541 33,500  Level FlightAware UK
06:07PM 53.7010 -8.1919 97° East 470 541 33,500  Level FlightAware UK
06:08PM 53.6961 -8.1211 97° East 470 541 33,500  Level FlightAware UK
06:08PM 53.6911 -8.0503 97° East 470 541 33,500  Level FlightAware UK
06:08PM 53.6860 -7.9796 97° East 470 541 33,500  Level FlightAware UK
06:08PM 53.6809 -7.9089 97° East 470 541 33,500  Level FlightAware UK
06:09PM 53.6757 -7.8384 97° East 468 539 33,500  Level FlightAware UK
06:09PM 53.6704 -7.7680 97° East 466 536 33,500  Level FlightAware UK
06:09PM 53.6652 -7.6976 97° East 466 536 33,500  Level FlightAware UK
06:10PM 53.6599 -7.6273 97° East 468 539 33,500  Level FlightAware UK
06:10PM 53.6547 -7.5568 97° East 468 539 33,500  Level FlightAware UK
06:10PM 53.6494 -7.4865 97° East 468 539 33,500  Level FlightAware UK
06:11PM 53.6439 -7.4161 97° East 468 539 33,500  Level FlightAware UK
06:11PM 53.6385 -7.3458 97° East 468 539 33,500  Level FlightAware UK
06:11PM 53.6330 -7.2754 98° East 468 539 33,500  Level FlightAware UK
06:11PM 53.6274 -7.2044 98° East 468 539 33,500  Level FlightAware UK
06:12PM 53.6218 -7.1342 98° East 468 539 33,500  Level FlightAware UK
06:12PM 53.6162 -7.0640 98° East 468 539 33,500  Level FlightAware UK
06:12PM 53.6107 -6.9939 97° East 468 539 33,500  Level FlightAware UK
06:13PM 53.6050 -6.9238 98° East 468 539 33,500  Level FlightAware UK
06:13PM 53.5993 -6.8538 98° East 468 539 33,500  Level FlightAware UK
06:13PM 53.5935 -6.7837 98° East 468 539 33,500  Level FlightAware UK
06:14PM 53.5876 -6.7136 98° East 466 536 33,500  Level FlightAware UK
06:14PM 53.5818 -6.6435 98° East 466 536 33,500  Level FlightAware UK
06:14PM 53.5759 -6.5735 98° East 466 536 33,500  Level FlightAware UK
06:14PM 53.5701 -6.5034 98° East 466 536 33,500  Level FlightAware UK
06:15PM 53.5642 -6.4332 98° East 466 536 33,500  Level FlightAware UK
06:15PM 53.5581 -6.3632 98° East 464 534 33,500  Level FlightAware UK
06:15PM 53.5519 -6.2931 98° East 464 534 33,500  Level FlightAware UK
06:16PM 53.5458 -6.2229 98° East 466 536 33,500  Level FlightAware UK
06:16PM 53.5395 -6.1519 98° East 466 536 33,500  Level FlightAware UK
06:16PM 53.5334 -6.0816 98° East 466 536 33,500  Level FlightAware UK
06:17PM 53.5272 -6.0113 98° East 466 536 33,500  Level FlightAware UK
06:17PM 53.5210 -5.9410 98° East 468 539 33,500  Level FlightAware UK
06:17PM 53.5147 -5.8706 98° East 466 536 33,500  Level FlightAware UK
06:17PM 53.5081 -5.8005 99° East 466 536 33,500  Level FlightAware UK
06:18PM 53.5016 -5.7295 99° East 466 536 33,500  Level FlightAware UK
06:18PM 53.4959 -5.6589 98° East 466 536 33,500  Level FlightAware UK
06:18PM 53.4915 -5.5887 96° East 466 536 33,500  Level FlightAware UK
06:19PM 53.4870 -5.5168 96° East 468 539 33,500  Level FlightAware UK
06:19PM 53.4828 -5.4457 96° East 468 539 33,500  Level FlightAware UK
06:19PM 53.4790 -5.3746 95° East 468 539 33,500  Level FlightAware UK
06:20PM 53.4753 -5.3034 95° East 468 539 33,500  Level FlightAware UK
06:20PM 53.4716 -5.2322 95° East 468 539 33,500  Level FlightAware UK
06:20PM 53.4678 -5.1610 95° East 468 539 33,500  Level FlightAware UK
06:20PM 53.4640 -5.0890 95° East 468 539 33,500  Level FlightAware UK
06:21PM 53.4602 -5.0178 95° East 470 541 33,500  Level FlightAware UK
06:21PM 53.4563 -4.9475 95° East 472 543 33,500  Level FlightAware UK
06:21PM 53.4523 -4.8757 95° East 470 541 33,500  Level FlightAware UK
06:22PM 53.4485 -4.8055 95° East 470 541 33,500  Level FlightAware UK
06:22PM 53.4446 -4.7346 95° East 470 541 33,500  Level FlightAware UK
06:22PM 53.4403 -4.6631 96° East 468 539 33,500  Level FlightAware UK
06:23PM 53.4361 -4.5926 96° East 466 536 33,500  Level FlightAware UK
06:23PM 53.4319 -4.5222 96° East 466 536 33,500  Level FlightAware UK
06:23PM 53.4275 -4.4519 96° East 466 536 33,500  Level FlightAware UK
06:23PM 53.4233 -4.3816 96° East 466 536 33,500  Level FlightAware UK
06:24PM 53.4190 -4.3114 96° East 466 536 33,500  Level FlightAware UK
06:24PM 53.4148 -4.2411 96° East 464 534 33,500  Level FlightAware UK
06:24PM 53.4103 -4.1701 96° East 464 534 33,500  Level FlightAware UK
06:25PM 53.4058 -4.0998 96° East 464 534 33,500  Level FlightAware UK
06:25PM 53.4013 -4.0295 96° East 466 536 33,500  Level FlightAware UK
06:25PM 53.3967 -3.9599 96° East 468 539 33,500  Level FlightAware UK
06:26PM 53.3921 -3.8895 96° East 468 539 33,500  Level FlightAware UK
06:26PM 53.3874 -3.8190 96° East 468 539 33,500  Level FlightAware UK
06:26PM 53.3826 -3.7477 96° East 468 539 33,500  Level FlightAware UK
06:26PM 53.3780 -3.6773 96° East 468 539 33,500  Level FlightAware UK
06:27PM 53.3731 -3.6069 97° East 466 536 33,500  Level FlightAware UK
06:27PM 53.3683 -3.5372 97° East 466 536 33,500  Level FlightAware UK
06:27PM 53.3634 -3.4659 96° East 466 536 33,500  Level FlightAware UK
06:28PM 53.3585 -3.3955 97° East 468 539 33,500  Level FlightAware UK
06:28PM 53.3536 -3.3250 97° East 466 536 33,500  Level FlightAware UK
06:28PM 53.3486 -3.2545 97° East 466 536 33,500  Level FlightAware UK
06:29PM 53.3437 -3.1824 97° East 468 539 33,500  Level FlightAware UK
06:29PM 53.3386 -3.1127 97° East 468 539 33,500  Level FlightAware UK
06:29PM 53.3334 -3.0424 97° East 468 539 33,500  Level FlightAware UK
06:29PM 53.3283 -2.9720 97° East 468 539 33,500  Level FlightAware UK
06:30PM 53.3231 -2.9016 97° East 468 539 33,500  Level FlightAware UK
06:30PM 53.3178 -2.8314 97° East 468 539 33,500  Level FlightAware UK
06:30PM 53.3124 -2.7596 97° East 468 539 33,500  Level FlightAware UK
06:31PM 53.3070 -2.6885 97° East 466 536 33,500  Level FlightAware UK
06:31PM 53.3019 -2.6191 97° East 466 536 33,500  Level FlightAware UK
06:31PM 53.2964 -2.5482 97° East 468 539 33,500  Level FlightAware UK
06:32PM 53.2910 -2.4782 97° East 468 539 33,500  Level FlightAware UK
06:32PM 53.2855 -2.4082 97° East 468 539 33,500  Level FlightAware UK
06:32PM 53.2800 -2.3383 98° East 470 541 33,500  Level FlightAware UK
06:32PM 53.2744 -2.2683 98° East 468 539 33,500  Level FlightAware UK
06:33PM 53.2688 -2.1974 98° East 468 539 33,500  Level FlightAware UK
06:33PM 53.2631 -2.1282 98° East 470 541 33,500  Level FlightAware UK
06:33PM 53.2573 -2.0583 98° East 468 539 33,500  Level FlightAware UK
06:34PM 53.2517 -1.9883 98° East 470 541 33,500  Level FlightAware UK
06:34PM 53.2458 -1.9175 98° East 468 539 33,500  Level FlightAware UK
06:34PM 53.2402 -1.8483 98° East 468 539 33,500  Level FlightAware UK
06:35PM 53.2342 -1.7777 98° East 468 539 33,500  Level FlightAware UK
06:35PM 53.2284 -1.7072 98° East 468 539 33,500  Level FlightAware UK
06:35PM 53.2225 -1.6375 98° East 468 539 33,500  Level FlightAware UK
06:35PM 53.2164 -1.5679 98° East 468 539 33,500  Level FlightAware UK
06:36PM 53.2104 -1.4983 98° East 468 539 33,500  Level FlightAware UK
06:36PM 53.2043 -1.4279 98° East 470 541 33,500  Level FlightAware UK
06:36PM 53.1982 -1.3591 98° East 472 543 33,500  Level FlightAware UK
06:37PM 53.1922 -1.2896 98° East 472 543 33,500  Level FlightAware UK
06:37PM 53.1854 -1.2196 99° East 472 543 33,500  Level FlightAware UK
06:37PM 53.1755 -1.1518 104° East 472 543 33,500  Level FlightAware UK
06:38PM 53.1653 -1.0834 104° East 470 541 33,500  Level FlightAware UK
06:38PM 53.1542 -1.0162 105° East 472 543 33,500  Level FlightAware UK
06:38PM 53.1429 -0.9501 106° East 474 545 33,500  Level FlightAware UK
06:38PM 53.1313 -0.8833 106° East 474 545 33,500  Level FlightAware UK
06:39PM 53.1196 -0.8167 106° East 474 545 33,500  Level FlightAware UK
06:39PM 53.1077 -0.7496 107° East 474 545 33,500  Level FlightAware UK
06:39PM 53.0959 -0.6842 107° East 474 545 33,500  Level FlightAware UK
06:40PM 53.0839 -0.6175 107° East 472 543 33,500  Level FlightAware UK
06:40PM 53.0720 -0.5508 107° East 474 545 33,500  Level FlightAware UK
06:40PM 53.0597 -0.4836 107° East 470 541 33,500  Level FlightAware UK
06:41PM 53.0477 -0.4181 107° East 468 539 33,500  Level FlightAware UK
06:41PM 53.0358 -0.3534 107° East 468 539 33,500  Level FlightAware UK
06:41PM 53.0239 -0.2888 107° East 466 536 33,500  Level FlightAware UK
06:41PM 53.0119 -0.2235 107° East 466 536 33,500  Level FlightAware UK
06:42PM 52.9997 -0.1575 107° East 468 539 33,500  Level FlightAware UK
06:42PM 52.9876 -0.0923 107° East 468 539 33,500  Level FlightAware UK
06:42PM 52.9756 -0.0272 107° East 468 539 33,500  Level FlightAware UK
06:43PM 52.9633 0.0385 107° East 468 539 33,500  Level FlightAware UK
06:43PM 52.9509 0.1042 107° East 468 539 33,500  Level FlightAware UK
06:43PM 52.9389 0.1684 107° East 470 541 33,500  Level FlightAware UK
06:44PM 52.9268 0.2325 107° East 468 539 33,500  Level FlightAware UK
06:44PM 52.9144 0.2979 107° East 470 541 33,500  Level FlightAware UK
06:44PM 52.9021 0.3632 107° East 472 543 33,500  Level FlightAware UK
06:44PM 52.8898 0.4276 107° East 470 541 33,500  Level FlightAware UK
06:45PM 52.8774 0.4926 107° East 468 539 33,500  Level FlightAware UK
06:45PM 52.8653 0.5560 108° East 468 539 33,500  Level FlightAware UK
06:45PM 52.8528 0.6206 108° East 474 545 33,500  Level FlightAware UK
06:46PM 52.8404 0.6845 108° East 474 545 33,500  Level FlightAware UK
06:46PM 52.8283 0.7475 108° East 472 543 33,500  Level FlightAware UK
06:46PM 52.8159 0.8112 108° East 470 541 33,500  Level FlightAware UK
06:47PM 52.8033 0.8761 108° East 470 541 33,500  Level FlightAware UK
06:47PM 52.7912 0.9386 108° East 472 543 33,500  Level FlightAware UK
06:47PM 52.7787 1.0025 108° East 470 541 33,500  Level FlightAware UK
06:47PM 52.7664 1.0647 108° East 472 543 33,500  Level FlightAware UK
06:48PM 52.7536 1.1288 108° East 472 543 33,500  Level FlightAware UK
06:48PM 52.7415 1.1900 108° East 470 541 33,500  Level FlightAware UK
06:48PM 52.7289 1.2532 108° East 468 539 33,500  Level FlightAware UK
06:49PM 52.7165 1.3149 108° East 468 539 33,500  Level FlightAware UK
06:49PM 52.7040 1.3773 108° East 468 539 33,500  Level FlightAware UK
06:49PM 52.6915 1.4396 108° East 468 539 33,500  Level FlightAware UK
06:50PM 52.6787 1.5031 108° East 468 539 33,500  Level FlightAware UK
06:50PM 52.6664 1.5645 108° East 468 539 33,500  Level FlightAware UK
06:50PM 52.6537 1.6272 108° East 468 539 33,500  Level FlightAware UK
06:50PM 52.6412 1.6884 109° East 466 536 33,500  Level FlightAware UK
06:51PM 52.6285 1.7502 109° East 468 539 33,500  Level FlightAware UK
06:51PM 52.6159 1.8120 109° East 468 539 33,500  Level FlightAware UK
06:51PM 52.6033 1.8737 109° East 468 539 33,500  Level FlightAware UK
06:52PM 52.5906 1.9353 109° East 466 536 33,500  Level FlightAware UK
06:52PM 52.5776 1.9982 109° East 468 539 33,500  Level FlightAware UK
06:52PM 52.5651 2.0590 109° East 468 539 33,500  Level FlightAware UK
06:53PM 52.5522 2.1210 109° East 468 539 33,500  Level FlightAware UK
06:53PM 52.5393 2.1830 109° East 464 534 33,500  Level FlightAware UK
06:53PM 52.5266 2.2434 109° East 462 532 33,500  Level FlightAware UK
06:53PM 52.5136 2.3052 109° East 466 536 33,500  Level FlightAware UK
06:54PM 52.5009 2.3664 109° East 464 534 33,500  Level FlightAware UK
06:54PM 52.4882 2.4270 109° East 464 534 33,500  Level FlightAware UK
06:54PM 52.4749 2.4897 109° East 464 534 33,500  Level FlightAware UK
06:55PM 52.4620 2.5504 109° East 468 539 33,500  Level FlightAware UK
06:55PM 52.4489 2.6118 109° East 470 541 33,500  Level FlightAware UK
06:55PM 52.4356 2.6739 109° East 472 543 33,500  Level FlightAware UK
06:56PM 52.4224 2.7352 109° East 468 539 33,500  Level FlightAware UK
06:56PM 52.4094 2.7957 109° East 470 541 33,500  Level FlightAware UK
06:56PM 52.3962 2.8569 109° East 470 541 33,500  Level FlightAware UK
06:56PM 52.3829 2.9187 109° East 470 541 33,500  Level FlightAware UK
06:57PM 52.3698 2.9797 109° East 470 541 33,500  Level FlightAware UK
06:57PM 52.3566 3.0405 110° East 474 545 33,500  Level FlightAware UK
06:57PM 52.3432 3.1018 110° East 474 545 33,500  Level FlightAware UK
06:58PM 52.3297 3.1622 110° East 472 543 33,500  Level FlightAware UK
06:58PM 52.3164 3.2224 110° East 470 541 33,500  Level FlightAware UK
06:58PM 52.3033 3.2826 110° East 466 536 33,500  Level FlightAware UK
06:59PM 52.2900 3.3424 110° East 464 534 33,500  Level FlightAware UK
06:59PM 52.2766 3.4029 110° East 466 536 33,500  Level FlightAware UK
06:59PM 52.2635 3.4630 110° East 464 534 33,500  Level FlightAware UK
06:59PM 52.2501 3.5230 110° East 464 534 33,500  Level FlightAware UK
07:00PM 52.2368 3.5831 110° East 468 539 33,500  Level FlightAware UK
07:00PM 52.2233 3.6434 110° East 468 539 33,500  Level FlightAware UK
07:00PM 52.2098 3.7036 110° East 468 539 33,500  Level FlightAware UK
07:01PM 52.1963 3.7638 110° East 468 539 33,500  Level FlightAware UK
07:01PM 52.1829 3.8240 110° East 468 539 33,500  Level FlightAware UK
07:01PM 52.1693 3.8842 110° East 468 539 33,500  Level FlightAware UK
07:02PM 52.1557 3.9443 110° East 468 539 33,500  Level FlightAware UK
07:02PM 52.1420 4.0044 110° East 470 541 33,500  Level FlightAware UK
07:02PM 52.1281 4.0644 111° Southeast 470 541 33,500  Level FlightAware UK
07:02PM 52.1140 4.1245 111° Southeast 470 541 33,500  Level FlightAware UK
07:03PM 52.1004 4.1847 110° East 468 539 33,500  Level FlightAware UK
07:03PM 52.0866 4.2449 110° East 470 541 33,500  Level FlightAware UK
07:03PM 52.0727 4.3050 111° Southeast 470 541 33,500  Level FlightAware UK
07:04PM 52.0588 4.3652 111° Southeast 470 541 33,500  Level FlightAware UK
07:04PM 52.0446 4.4251 111° Southeast 466 536 33,500  Level FlightAware UK
07:04PM 52.0306 4.4852 111° Southeast 466 536 33,500  Level FlightAware UK
07:05PM 52.0163 4.5460 111° Southeast 466 536 33,500  Level FlightAware UK
07:05PM 52.0019 4.6061 111° Southeast 466 536 33,500  Level FlightAware UK
07:05PM 51.9873 4.6660 112° Southeast 1 1 33,500  Level FlightAware UK
07:05PM 51.9726 4.7261 112° Southeast 472 543 33,500  Level FlightAware UK
07:06PM 51.9578 4.7864 112° Southeast 472 543 33,500  Level FlightAware UK
07:06PM 51.9430 4.8465 112° Southeast 472 543 33,500  Level FlightAware UK
07:06PM 51.9290 4.9071 111° Southeast 472 543 33,500  Level FlightAware UK
07:07PM 51.9156 4.9683 110° East 472 543 33,500  Level FlightAware UK
07:07PM 51.9028 5.0298 109° East 472 543 33,500  Level FlightAware UK
07:07PM 51.8885 5.0900 111° Southeast 472 543 33,500  Level FlightAware UK
07:08PM 51.8744 5.1504 111° Southeast 472 543 33,500  Level FlightAware UK
07:08PM 51.8602 5.2106 111° Southeast 474 545 33,500  Level FlightAware UK
07:08PM 51.8444 5.2693 114° Southeast 476 548 33,500  Level FlightAware UK
07:08PM 51.8302 5.3292 111° Southeast 476 548 33,500  Level FlightAware UK
07:09PM 51.8164 5.3892 110° East 476 548 33,500  Level FlightAware UK
07:09PM 51.8027 5.4491 110° East 474 545 33,500  Level FlightAware UK
07:11PM 51.7352 5.7180 112° Southeast  Level FlightAware Approximate
07:18PM 51.3659 7.1339 112° Southeast  Level FlightAware Approximate
07:19PM 51.3118 7.3342 113° Southeast  Level FlightAware Approximate
07:20PM 51.2575 7.5356 112° Southeast  Level FlightAware Approximate
07:21PM 51.2051 7.7367 112° Southeast  Level FlightAware Approximate
07:22PM 51.1458 7.9316 125° Southeast  Level FlightAware Approximate
07:23PM 51.0683 8.1103 125° Southeast  Level FlightAware Approximate
07:24PM 50.9906 8.2886 124° Southeast  Level FlightAware Approximate
07:25PM 50.9137 8.4674 124° Southeast  Level FlightAware Approximate
07:26PM 50.8365 8.6456 124° Southeast  Level FlightAware Approximate
07:27PM 50.7591 8.8232 125° Southeast  Level FlightAware Approximate
07:28PM 50.6814 9.0003 125° Southeast  Level FlightAware Approximate
07:29PM 50.6034 9.1767 125° Southeast  Level FlightAware Approximate
07:30PM 50.5252 9.3526 125° Southeast  Level FlightAware Approximate
07:31PM 50.4468 9.5280 125° Southeast  Level FlightAware Approximate
07:32PM 50.3686 9.7033 125° Southeast  Level FlightAware Approximate
07:33PM 50.2901 9.8781 125° Southeast  Level FlightAware Approximate
07:34PM 50.2114 10.0522 125° Southeast  Level FlightAware Approximate
07:35PM 50.1324 10.2258 125° Southeast  Level FlightAware Approximate
07:36PM 50.0532 10.3989 125° Southeast  Level FlightAware Approximate
07:37PM 49.9737 10.5713 126° Southeast  Level FlightAware Approximate
07:38PM 49.8939 10.7432 126° Southeast  Level FlightAware Approximate
07:39PM 49.8139 10.9145 126° Southeast  Level FlightAware Approximate
07:40PM 49.7336 11.0852 126° Southeast  Level FlightAware Approximate
07:41PM 49.6531 11.2554 126° Southeast  Level FlightAware Approximate
07:42PM 49.5724 11.4250 126° Southeast  Level FlightAware Approximate
07:43PM 49.4914 11.5941 126° Southeast  Level FlightAware Approximate
07:44PM 49.4101 11.7626 127° Southeast  Level FlightAware Approximate
07:45PM 49.3286 11.9305 127° Southeast  Level FlightAware Approximate
07:46PM 49.2469 12.0979 127° Southeast  Level FlightAware Approximate
07:47PM 49.1649 12.2647 127° Southeast  Level FlightAware Approximate
07:48PM 49.0827 12.4310 127° Southeast  Level FlightAware Approximate
07:49PM 49.0002 12.5967 127° Southeast  Level FlightAware Approximate
07:50PM 48.9175 12.7619 127° Southeast  Level FlightAware Approximate
07:51PM 48.8346 12.9265 127° Southeast  Level FlightAware Approximate
07:52PM 48.7514 13.0906 128° Southeast  Level FlightAware Approximate
07:53PM 48.6680 13.2541 128° Southeast  Level FlightAware Approximate
07:54PM 48.5844 13.4171 128° Southeast  Level FlightAware Approximate
07:55PM 48.5005 13.5796 128° Southeast  Level FlightAware Approximate
07:56PM 48.4164 13.7415 128° Southeast  Level FlightAware Approximate
07:57PM 48.3321 13.9029 128° Southeast  Level FlightAware Approximate
07:58PM 48.2476 14.0638 128° Southeast  Level FlightAware Approximate
07:59PM 48.1628 14.2241 128° Southeast  Level FlightAware Approximate
08:00PM 48.0778 14.3839 128° Southeast  Level FlightAware Approximate
08:01PM 47.9926 14.5431 129° Southeast  Level FlightAware Approximate
08:02PM 47.9072 14.7019 129° Southeast  Level FlightAware Approximate
08:03PM 47.8216 14.8601 129° Southeast  Level FlightAware Approximate
08:04PM 47.7357 15.0178 129° Southeast  Level FlightAware Approximate
08:05PM 47.6496 15.1749 129° Southeast  Level FlightAware Approximate
08:06PM 47.5634 15.3316 129° Southeast  Level FlightAware Approximate
08:07PM 47.4768 15.4877 129° Southeast  Level FlightAware Approximate
08:08PM 47.3901 15.6434 129° Southeast  Level FlightAware Approximate
08:09PM 47.3032 15.7985 130° Southeast  Level FlightAware Approximate
08:10PM 47.2161 15.9531 130° Southeast  Level FlightAware Approximate
08:11PM 47.1287 16.1072 130° Southeast  Level FlightAware Approximate
08:12PM 47.0412 16.2608 130° Southeast  Level FlightAware Approximate
08:13PM 46.9535 16.4139 130° Southeast  Level FlightAware Approximate
08:14PM 46.8655 16.5665 130° Southeast  Level FlightAware Approximate
08:15PM 46.7774 16.7185 130° Southeast  Level FlightAware Approximate
08:16PM 46.6890 16.8701 130° Southeast  Level FlightAware Approximate
08:17PM 46.6005 17.0212 130° Southeast  Level FlightAware Approximate
08:18PM 46.5117 17.1718 131° Southeast  Level FlightAware Approximate
08:19PM 46.4228 17.3219 131° Southeast  Level FlightAware Approximate
08:20PM 46.3336 17.4715 131° Southeast  Level FlightAware Approximate
08:21PM 46.2443 17.6207 131° Southeast  Level FlightAware Approximate
08:22PM 46.1548 17.7693 131° Southeast  Level FlightAware Approximate
08:23PM 46.0650 17.9175 131° Southeast  Level FlightAware Approximate
08:24PM 45.9751 18.0652 131° Southeast  Level FlightAware Approximate
08:25PM 45.8850 18.2124 131° Southeast  Level FlightAware Approximate
08:26PM 45.7947 18.3591 131° Southeast  Level FlightAware Approximate
08:27PM 45.7043 18.5053 132° Southeast  Level FlightAware Approximate
08:28PM 45.6136 18.6511 132° Southeast  Level FlightAware Approximate
08:29PM 45.5227 18.7964 132° Southeast  Level FlightAware Approximate
08:30PM 45.4317 18.9412 132° Southeast  Level FlightAware Approximate
08:31PM 45.3405 19.0856 132° Southeast  Level FlightAware Approximate
08:32PM 45.2491 19.2295 132° Southeast  Level FlightAware Approximate
08:33PM 45.1575 19.3729 132° Southeast  Level FlightAware Approximate
08:34PM 45.0657 19.5159 132° Southeast  Level FlightAware Approximate
08:35PM 44.9738 19.6584 132° Southeast  Level FlightAware Approximate
08:36PM 44.8817 19.8005 132° Southeast  Level FlightAware Approximate
08:37PM 44.7894 19.9421 133° Southeast  Level FlightAware Approximate
08:38PM 44.6969 20.0833 133° Southeast  Level FlightAware Approximate
08:39PM 44.6043 20.2240 133° Southeast  Level FlightAware Approximate
08:40PM 44.5115 20.3642 133° Southeast  Level FlightAware Approximate
08:41PM 44.4185 20.5040 133° Southeast  Level FlightAware Approximate
08:42PM 44.3254 20.6434 133° Southeast  Level FlightAware Approximate
08:43PM 44.2321 20.7823 133° Southeast  Level FlightAware Approximate
08:44PM 44.1386 20.9208 133° Southeast  Level FlightAware Approximate
08:45PM 44.0449 21.0589 133° Southeast  Level FlightAware Approximate
08:46PM 43.9511 21.1965 133° Southeast  Level FlightAware Approximate
08:47PM 43.8571 21.3337 134° Southeast  Level FlightAware Approximate
08:48PM 43.7630 21.4704 134° Southeast  Level FlightAware Approximate
08:49PM 43.6687 21.6067 134° Southeast  Level FlightAware Approximate
08:50PM 43.5742 21.7426 134° Southeast  Level FlightAware Approximate
08:51PM 43.4796 21.8781 134° Southeast  Level FlightAware Approximate
08:52PM 43.3848 22.0131 134° Southeast  Level FlightAware Approximate
08:53PM 43.2899 22.1478 134° Southeast  Level FlightAware Approximate
08:54PM 43.1953 22.2826 134° Southeast  Level FlightAware Approximate
08:55PM 43.1005 22.4171 134° Southeast  Level FlightAware Approximate
08:56PM 43.0056 22.5511 134° Southeast  Level FlightAware Approximate
08:57PM 42.9105 22.6847 134° Southeast  Level FlightAware Approximate
08:58PM 42.8153 22.8179 134° Southeast  Level FlightAware Approximate
08:59PM 42.7199 22.9507 134° Southeast  Level FlightAware Approximate
09:00PM 42.6244 23.0831 134° Southeast  Level FlightAware Approximate
09:01PM 42.5287 23.2151 135° Southeast  Level FlightAware Approximate
09:02PM 42.4328 23.3466 135° Southeast  Level FlightAware Approximate
09:03PM 42.3368 23.4778 135° Southeast  Level FlightAware Approximate
09:04PM 42.2407 23.6086 135° Southeast  Level FlightAware Approximate
09:05PM 42.1444 23.7389 135° Southeast  Level FlightAware Approximate
09:06PM 42.0480 23.8689 135° Southeast  Level FlightAware Approximate
09:07PM 41.9508 23.9977 136° Southeast  Level FlightAware Approximate
09:08PM 41.8530 24.1254 136° Southeast  Level FlightAware Approximate
09:09PM 41.7550 24.2527 136° Southeast  Level FlightAware Approximate
09:10PM 41.6569 24.3796 136° Southeast  Level FlightAware Approximate
09:11PM 41.5586 24.5061 136° Southeast  Level FlightAware Approximate
09:12PM 41.4602 24.6322 136° Southeast  Level FlightAware Approximate
09:13PM 41.3617 24.7579 136° Southeast  Level FlightAware Approximate
09:14PM 41.2630 24.8833 136° Southeast  Level FlightAware Approximate
09:15PM 41.1642 25.0082 136° Southeast  Level FlightAware Approximate
09:16PM 41.0653 25.1329 136° Southeast  Level FlightAware Approximate
09:17PM 40.9662 25.2571 137° Southeast  Level FlightAware Approximate
09:18PM 40.8670 25.3809 137° Southeast  Level FlightAware Approximate
09:19PM 40.7677 25.5044 137° Southeast  Level FlightAware Approximate
09:20PM 40.6682 25.6275 137° Southeast  Level FlightAware Approximate
09:21PM 40.5692 25.7510 136° Southeast  Level FlightAware Approximate
09:22PM 40.4701 25.8744 137° Southeast  Level FlightAware Approximate
09:23PM 40.3709 25.9973 137° Southeast  Level FlightAware Approximate
09:24PM 40.2716 26.1199 137° Southeast  Level FlightAware Approximate
09:25PM 40.1722 26.2422 137° Southeast  Level FlightAware Approximate
09:26PM 40.0726 26.3641 137° Southeast  Level FlightAware Approximate
09:27PM 39.9729 26.4856 137° Southeast  Level FlightAware Approximate
09:28PM 39.8731 26.6068 137° Southeast  Level FlightAware Approximate
09:29PM 39.7732 26.7276 137° Southeast  Level FlightAware Approximate
09:30PM 39.6731 26.8481 137° Southeast  Level FlightAware Approximate
09:31PM 39.5729 26.9682 137° Southeast  Level FlightAware Approximate
09:32PM 39.4725 27.0880 137° Southeast  Level FlightAware Approximate
09:33PM 39.3721 27.2074 137° Southeast  Level FlightAware Approximate
09:34PM 39.2715 27.3265 137° Southeast  Level FlightAware Approximate
09:35PM 39.1708 27.4452 138° Southeast  Level FlightAware Approximate
09:36PM 39.0700 27.5636 138° Southeast  Level FlightAware Approximate
09:37PM 38.9691 27.6817 138° Southeast  Level FlightAware Approximate
09:38PM 38.8680 27.7994 138° Southeast  Level FlightAware Approximate
09:39PM 38.7669 27.9168 138° Southeast  Level FlightAware Approximate
09:40PM 38.6656 28.0339 138° Southeast  Level FlightAware Approximate
09:41PM 38.5642 28.1506 138° Southeast  Level FlightAware Approximate
09:42PM 38.4627 28.2670 138° Southeast  Level FlightAware Approximate
09:43PM 38.3611 28.3831 138° Southeast  Level FlightAware Approximate
09:44PM 38.2593 28.4989 138° Southeast  Level FlightAware Approximate
09:45PM 38.1575 28.6143 138° Southeast  Level FlightAware Approximate
09:46PM 38.0555 28.7294 138° Southeast  Level FlightAware Approximate
09:47PM 37.9534 28.8442 138° Southeast  Level FlightAware Approximate
09:48PM 37.8512 28.9587 138° Southeast  Level FlightAware Approximate
09:49PM 37.7489 29.0728 139° Southeast  Level FlightAware Approximate
09:50PM 37.6465 29.1867 139° Southeast  Level FlightAware Approximate
09:51PM 37.5440 29.3002 139° Southeast  Level FlightAware Approximate
09:52PM 37.4414 29.4134 139° Southeast  Level FlightAware Approximate
09:53PM 37.3386 29.5263 139° Southeast  Level FlightAware Approximate
09:54PM 37.2358 29.6389 139° Southeast  Level FlightAware Approximate
09:55PM 37.1328 29.7512 139° Southeast  Level FlightAware Approximate
09:56PM 37.0298 29.8631 139° Southeast  Level FlightAware Approximate
09:57PM 36.9266 29.9748 139° Southeast  Level FlightAware Approximate
09:58PM 36.8233 30.0862 139° Southeast  Level FlightAware Approximate
09:59PM 36.7200 30.1973 139° Southeast  Level FlightAware Approximate
10:00PM 36.6165 30.3080 139° Southeast  Level FlightAware Approximate
10:01PM 36.5129 30.4185 139° Southeast  Level FlightAware Approximate
10:02PM 36.4092 30.5286 140° Southeast  Level FlightAware Approximate
10:03PM 36.3053 30.6383 140° Southeast  Level FlightAware Approximate
10:04PM 36.2014 30.7478 140° Southeast  Level FlightAware Approximate
10:05PM 36.0973 30.8569 140° Southeast  Level FlightAware Approximate
10:06PM 35.9931 30.9658 140° Southeast  Level FlightAware Approximate
10:07PM 35.8889 31.0744 140° Southeast  Level FlightAware Approximate
10:08PM 35.7845 31.1827 140° Southeast  Level FlightAware Approximate
10:09PM 35.6800 31.2907 140° Southeast  Level FlightAware Approximate
10:10PM 35.5755 31.3984 140° Southeast  Level FlightAware Approximate
10:11PM 35.4708 31.5059 140° Southeast  Level FlightAware Approximate
10:12PM 35.3661 31.6131 140° Southeast  Level FlightAware Approximate
10:13PM 35.2612 31.7200 140° Southeast  Level FlightAware Approximate
10:14PM 35.1563 31.8266 140° Southeast  Level FlightAware Approximate
10:15PM 35.0512 31.9329 140° Southeast  Level FlightAware Approximate
10:16PM 34.9461 32.0390 140° Southeast  Level FlightAware Approximate
10:17PM 34.8409 32.1448 140° Southeast  Level FlightAware Approximate
10:18PM 34.7356 32.2503 141° Southeast  Level FlightAware Approximate
10:19PM 34.6302 32.3556 141° Southeast  Level FlightAware Approximate
10:20PM 34.5247 32.4606 141° Southeast  Level FlightAware Approximate
10:21PM 34.4191 32.5653 141° Southeast  Level FlightAware Approximate
10:22PM 34.3134 32.6698 141° Southeast  Level FlightAware Approximate
10:23PM 34.2077 32.7740 141° Southeast  Level FlightAware Approximate
10:24PM 34.1019 32.8779 141° Southeast  Level FlightAware Approximate
10:25PM 33.9959 32.9816 141° Southeast  Level FlightAware Approximate
10:26PM 33.8899 33.0850 141° Southeast  Level FlightAware Approximate
10:27PM 33.7838 33.1882 141° Southeast  Level FlightAware Approximate
10:28PM 33.6776 33.2911 141° Southeast  Level FlightAware Approximate
10:29PM 33.5701 33.3919 143° Southeast  Level FlightAware Approximate
10:30PM 33.4610 33.4901 143° Southeast  Level FlightAware Approximate
10:31PM 33.3559 33.5942 140° Southeast  Level FlightAware Approximate
10:32PM 33.2513 33.6988 140° Southeast  Level FlightAware Approximate
10:33PM 33.1467 33.8034 140° Southeast  Level FlightAware Approximate
10:34PM 33.0422 33.9080 140° Southeast  Level FlightAware Approximate
10:35PM 32.9359 34.0098 143° Southeast  Level FlightAware Approximate
10:36PM 32.8274 34.1082 143° Southeast  Level FlightAware Approximate
10:37PM 32.7188 34.2063 143° Southeast  Level FlightAware Approximate
10:38PM 32.6099 34.3039 144° Southeast  Level FlightAware Approximate
10:39PM 32.5001 34.3999 144° Southeast  Level FlightAware Approximate
10:40PM 32.3959 34.5042 140° Southeast  Level FlightAware Approximate
10:41PM 32.2895 34.6050 143° Southeast  Level FlightAware Approximate
10:42PM 32.1809 34.7025 140° Southeast  Level FlightAware Approximate
10:43PM 32.0768 34.8065 140° Southeast  Level FlightAware Approximate
10:44PM 32.0000 34.8667 148° Southeast  Level FlightAware Approximate
10:45PM 32.0095 34.8769 148° Southeast  Level Estimated
10:46PM 32.0095 34.8769 148° Southeast  Level Estimated
10:47PM 32.0095 34.8769 148° Southeast  Level Estimated
10:48PM 32.0095 34.8769 148° Southeast  Level Estimated
10:49PM 32.0095 34.8769 148° Southeast  Level Estimated
10:50PM 32.0095 34.8769 148° Southeast  Level Estimated
10:51PM 32.0095 34.8769 148° Southeast  Level Estimated
10:52PM 32.0095 34.8769 148° Southeast  Level Estimated
10:53PM 32.0095 34.8769 148° Southeast  Level Estimated
10:54PM 32.0095 34.8769 148° Southeast  Level Estimated
10:55PM 32.0095 34.8769 148° Southeast  Level Estimated
10:56PM 32.0095 34.8769 148° Southeast  Level Estimated
10:57PM 32.0095 34.8769 148° Southeast  Level Estimated
10:58PM 32.0095 34.8769 148° Southeast  Level Estimated